Weather at Bisbee Douglas International Airport

Public forecast

Using degrees Fahrenheit for public forecast. Weather courtesy of forecast.io.

Current aviation weather report (METAR) for Bisbee Douglas International Airport

Report is more than 6 hours old.

2024/05/27 23:56 (retrieved 1 day ago)

KDUG 282356Z AUTO 28018G28KT 10SM CLR 34/M18 A3002 RMK AO2 PK WND 25028/2257 SLP097 T03441178 10367 20317 55006

Closest aviation forecast (TAF) to Bisbee Douglas International Airport

Closest forecast is Sierra Vista Municipal Airport / Libby Army Air Field, 38.7 nm (71.8 km) W.

2024/05/28 20:09 (retrieved 4 hours ago)

TAF KFHU 282000Z 2820/3002 24012G22KT 9999 FEW250 510005 QNH3006INS TEMPO 2820/2901 25016G26KT 520005 BECMG 2902/2903 23012KT 9999 FEW250 QNH3009INS BECMG 2905/2906 21009KT 9999 FEW250 QNH3011INS WND VRB06KT AFT 2908 BECMG 2917/2918 21012G18KT 9999 SKC 510005 QNH3004INS TX34/2821Z TN16/2911Z